sensor_id;sensor_type;location;lat;lon;timestamp;P1;durP1;ratioP1;P2;durP2;ratioP2
30080;SDS011;16902;50.816;12.828;2024-02-04T00:02:19;0.50;;;0.50;;
30080;SDS011;16902;50.816;12.828;2024-02-04T00:07:25;0.40;;;0.40;;
30080;SDS011;16902;50.816;12.828;2024-02-04T00:12:28;0.50;;;0.50;;
30080;SDS011;16902;50.816;12.828;2024-02-04T00:17:30;0.70;;;0.70;;
30080;SDS011;16902;50.816;12.828;2024-02-04T00:22:34;0.47;;;0.47;;
30080;SDS011;16902;50.816;12.828;2024-02-04T00:27:36;0.57;;;0.57;;
30080;SDS011;16902;50.816;12.828;2024-02-04T00:32:39;0.38;;;0.38;;
30080;SDS011;16902;50.816;12.828;2024-02-04T00:37:41;0.80;;;0.47;;
30080;SDS011;16902;50.816;12.828;2024-02-04T00:42:43;2.90;;;1.38;;
30080;SDS011;16902;50.816;12.828;2024-02-04T00:47:45;1.77;;;1.13;;
30080;SDS011;16902;50.816;12.828;2024-02-04T00:52:47;2.25;;;1.33;;
30080;SDS011;16902;50.816;12.828;2024-02-04T00:57:49;0.85;;;0.85;;
30080;SDS011;16902;50.816;12.828;2024-02-04T01:02:50;0.70;;;0.70;;
30080;SDS011;16902;50.816;12.828;2024-02-04T01:07:52;0.70;;;0.70;;
30080;SDS011;16902;50.816;12.828;2024-02-04T01:12:54;0.70;;;0.70;;
30080;SDS011;16902;50.816;12.828;2024-02-04T01:17:56;0.50;;;0.50;;
30080;SDS011;16902;50.816;12.828;2024-02-04T01:22:58;0.32;;;0.32;;
30080;SDS011;16902;50.816;12.828;2024-02-04T01:28:00;0.60;;;0.60;;
30080;SDS011;16902;50.816;12.828;2024-02-04T01:33:02;0.68;;;0.68;;
30080;SDS011;16902;50.816;12.828;2024-02-04T01:38:04;2.13;;;0.68;;
30080;SDS011;16902;50.816;12.828;2024-02-04T01:43:06;0.50;;;0.50;;
30080;SDS011;16902;50.816;12.828;2024-02-04T01:48:08;0.45;;;0.45;;
30080;SDS011;16902;50.816;12.828;2024-02-04T01:53:10;0.50;;;0.50;;
30080;SDS011;16902;50.816;12.828;2024-02-04T01:58:13;0.40;;;0.40;;
30080;SDS011;16902;50.816;12.828;2024-02-04T02:03:15;0.73;;;0.73;;
30080;SDS011;16902;50.816;12.828;2024-02-04T02:08:17;0.70;;;0.70;;
30080;SDS011;16902;50.816;12.828;2024-02-04T02:13:20;0.60;;;0.60;;
30080;SDS011;16902;50.816;12.828;2024-02-04T02:23:31;0.63;;;0.63;;
30080;SDS011;16902;50.816;12.828;2024-02-04T02:28:42;0.70;;;0.70;;
30080;SDS011;16902;50.816;12.828;2024-02-04T02:33:44;0.40;;;0.40;;
30080;SDS011;16902;50.816;12.828;2024-02-04T02:43:52;0.55;;;0.55;;
30080;SDS011;16902;50.816;12.828;2024-02-04T02:48:55;0.65;;;0.65;;
30080;SDS011;16902;50.816;12.828;2024-02-04T02:53:58;0.50;;;0.50;;
30080;SDS011;16902;50.816;12.828;2024-02-04T02:59:00;0.50;;;0.50;;
30080;SDS011;16902;50.816;12.828;2024-02-04T03:04:02;0.30;;;0.30;;
30080;SDS011;16902;50.816;12.828;2024-02-04T03:09:04;0.47;;;0.47;;
30080;SDS011;16902;50.816;12.828;2024-02-04T03:14:06;0.50;;;0.50;;
30080;SDS011;16902;50.816;12.828;2024-02-04T03:19:08;0.50;;;0.50;;
30080;SDS011;16902;50.816;12.828;2024-02-04T03:24:10;0.47;;;0.47;;
30080;SDS011;16902;50.816;12.828;2024-02-04T03:29:12;0.80;;;0.80;;
30080;SDS011;16902;50.816;12.828;2024-02-04T03:34:14;0.60;;;0.60;;
30080;SDS011;16902;50.816;12.828;2024-02-04T03:39:16;0.88;;;0.85;;
30080;SDS011;16902;50.816;12.828;2024-02-04T03:44:18;0.50;;;0.50;;
30080;SDS011;16902;50.816;12.828;2024-02-04T03:49:20;0.47;;;0.47;;
30080;SDS011;16902;50.816;12.828;2024-02-04T03:54:23;0.55;;;0.55;;
30080;SDS011;16902;50.816;12.828;2024-02-04T03:59:26;0.70;;;0.70;;
30080;SDS011;16902;50.816;12.828;2024-02-04T04:04:27;0.77;;;0.77;;
30080;SDS011;16902;50.816;12.828;2024-02-04T04:09:30;0.68;;;0.68;;
30080;SDS011;16902;50.816;12.828;2024-02-04T04:14:31;1.02;;;0.93;;
30080;SDS011;16902;50.816;12.828;2024-02-04T04:19:33;0.60;;;0.60;;
30080;SDS011;16902;50.816;12.828;2024-02-04T04:24:38;0.60;;;0.60;;
30080;SDS011;16902;50.816;12.828;2024-02-04T04:29:40;0.73;;;0.73;;
30080;SDS011;16902;50.816;12.828;2024-02-04T04:34:41;0.90;;;0.90;;
30080;SDS011;16902;50.816;12.828;2024-02-04T04:39:43;0.70;;;0.70;;
30080;SDS011;16902;50.816;12.828;2024-02-04T04:44:45;1.20;;;0.77;;
30080;SDS011;16902;50.816;12.828;2024-02-04T04:49:48;0.65;;;0.65;;
30080;SDS011;16902;50.816;12.828;2024-02-04T04:54:50;0.93;;;0.93;;
30080;SDS011;16902;50.816;12.828;2024-02-04T04:59:51;0.98;;;0.93;;
30080;SDS011;16902;50.816;12.828;2024-02-04T05:04:53;0.68;;;0.68;;
30080;SDS011;16902;50.816;12.828;2024-02-04T05:09:55;0.93;;;0.90;;
30080;SDS011;16902;50.816;12.828;2024-02-04T05:14:57;1.90;;;1.15;;
30080;SDS011;16902;50.816;12.828;2024-02-04T05:19:59;1.00;;;0.82;;
30080;SDS011;16902;50.816;12.828;2024-02-04T05:25:01;1.70;;;1.17;;
30080;SDS011;16902;50.816;12.828;2024-02-04T05:30:03;0.82;;;0.82;;
30080;SDS011;16902;50.816;12.828;2024-02-04T05:35:07;0.63;;;0.63;;
30080;SDS011;16902;50.816;12.828;2024-02-04T05:40:09;0.70;;;0.70;;
30080;SDS011;16902;50.816;12.828;2024-02-04T05:45:11;1.05;;;0.88;;
30080;SDS011;16902;50.816;12.828;2024-02-04T05:50:13;1.30;;;1.08;;
30080;SDS011;16902;50.816;12.828;2024-02-04T05:55:16;0.50;;;0.50;;
30080;SDS011;16902;50.816;12.828;2024-02-04T06:00:18;0.63;;;0.63;;
30080;SDS011;16902;50.816;12.828;2024-02-04T06:05:20;0.77;;;0.77;;
30080;SDS011;16902;50.816;12.828;2024-02-04T06:10:21;0.77;;;0.73;;
30080;SDS011;16902;50.816;12.828;2024-02-04T06:15:23;0.68;;;0.68;;
30080;SDS011;16902;50.816;12.828;2024-02-04T06:20:26;0.60;;;0.60;;
30080;SDS011;16902;50.816;12.828;2024-02-04T06:25:28;0.60;;;0.60;;
30080;SDS011;16902;50.816;12.828;2024-02-04T06:30:30;0.63;;;0.63;;
30080;SDS011;16902;50.816;12.828;2024-02-04T06:35:32;0.60;;;0.60;;
30080;SDS011;16902;50.816;12.828;2024-02-04T06:40:34;0.73;;;0.73;;
30080;SDS011;16902;50.816;12.828;2024-02-04T06:45:36;0.60;;;0.60;;
30080;SDS011;16902;50.816;12.828;2024-02-04T06:50:38;0.40;;;0.40;;
30080;SDS011;16902;50.816;12.828;2024-02-04T06:55:40;0.73;;;0.73;;
30080;SDS011;16902;50.816;12.828;2024-02-04T07:00:42;0.75;;;0.75;;
30080;SDS011;16902;50.816;12.828;2024-02-04T07:05:44;0.70;;;0.70;;
30080;SDS011;16902;50.816;12.828;2024-02-04T07:10:49;0.63;;;0.63;;
30080;SDS011;16902;50.816;12.828;2024-02-04T07:15:51;0.93;;;0.93;;
30080;SDS011;16902;50.816;12.828;2024-02-04T07:20:53;0.57;;;0.57;;
30080;SDS011;16902;50.816;12.828;2024-02-04T07:25:54;0.60;;;0.60;;
30080;SDS011;16902;50.816;12.828;2024-02-04T07:30:56;0.50;;;0.50;;
30080;SDS011;16902;50.816;12.828;2024-02-04T07:35:58;0.60;;;0.60;;
30080;SDS011;16902;50.816;12.828;2024-02-04T07:41:00;0.63;;;0.63;;
30080;SDS011;16902;50.816;12.828;2024-02-04T07:46:02;0.50;;;0.50;;
30080;SDS011;16902;50.816;12.828;2024-02-04T07:51:06;0.57;;;0.57;;
30080;SDS011;16902;50.816;12.828;2024-02-04T07:56:09;0.60;;;0.60;;
30080;SDS011;16902;50.816;12.828;2024-02-04T08:01:12;0.50;;;0.50;;
30080;SDS011;16902;50.816;12.828;2024-02-04T08:06:14;0.55;;;0.55;;
30080;SDS011;16902;50.816;12.828;2024-02-04T08:11:20;0.47;;;0.47;;
30080;SDS011;16902;50.816;12.828;2024-02-04T08:16:23;0.50;;;0.50;;
30080;SDS011;16902;50.816;12.828;2024-02-04T08:21:24;1.85;;;0.60;;
30080;SDS011;16902;50.816;12.828;2024-02-04T08:26:26;0.50;;;0.50;;
30080;SDS011;16902;50.816;12.828;2024-02-04T08:31:29;0.57;;;0.57;;
30080;SDS011;16902;50.816;12.828;2024-02-04T08:36:33;0.55;;;0.55;;
30080;SDS011;16902;50.816;12.828;2024-02-04T08:41:35;0.70;;;0.70;;
30080;SDS011;16902;50.816;12.828;2024-02-04T08:46:37;0.55;;;0.55;;
30080;SDS011;16902;50.816;12.828;2024-02-04T08:51:39;0.40;;;0.40;;
30080;SDS011;16902;50.816;12.828;2024-02-04T08:56:41;0.50;;;0.50;;
30080;SDS011;16902;50.816;12.828;2024-02-04T09:01:43;0.60;;;0.60;;
30080;SDS011;16902;50.816;12.828;2024-02-04T09:06:45;0.70;;;0.70;;
30080;SDS011;16902;50.816;12.828;2024-02-04T09:11:47;0.50;;;0.50;;
30080;SDS011;16902;50.816;12.828;2024-02-04T09:16:49;0.50;;;0.50;;
30080;SDS011;16902;50.816;12.828;2024-02-04T09:21:51;0.40;;;0.40;;
30080;SDS011;16902;50.816;12.828;2024-02-04T09:26:53;0.40;;;0.40;;
30080;SDS011;16902;50.816;12.828;2024-02-04T09:31:55;0.73;;;0.70;;
30080;SDS011;16902;50.816;12.828;2024-02-04T09:36:57;0.80;;;0.80;;
30080;SDS011;16902;50.816;12.828;2024-02-04T09:42:00;0.70;;;0.70;;
30080;SDS011;16902;50.816;12.828;2024-02-04T09:47:02;0.45;;;0.45;;
30080;SDS011;16902;50.816;12.828;2024-02-04T09:52:06;0.60;;;0.60;;
30080;SDS011;16902;50.816;12.828;2024-02-04T09:57:10;0.50;;;0.50;;
30080;SDS011;16902;50.816;12.828;2024-02-04T10:02:13;1.38;;;1.33;;
30080;SDS011;16902;50.816;12.828;2024-02-04T10:07:19;0.50;;;0.50;;
30080;SDS011;16902;50.816;12.828;2024-02-04T10:12:21;0.50;;;0.50;;
30080;SDS011;16902;50.816;12.828;2024-02-04T10:17:23;0.47;;;0.47;;
30080;SDS011;16902;50.816;12.828;2024-02-04T10:22:26;0.40;;;0.40;;
30080;SDS011;16902;50.816;12.828;2024-02-04T10:27:29;0.98;;;0.60;;
30080;SDS011;16902;50.816;12.828;2024-02-04T10:32:37;0.60;;;0.60;;
30080;SDS011;16902;50.816;12.828;2024-02-04T10:37:39;0.70;;;0.70;;
30080;SDS011;16902;50.816;12.828;2024-02-04T10:42:44;0.50;;;0.50;;
30080;SDS011;16902;50.816;12.828;2024-02-04T10:47:50;0.77;;;0.77;;
30080;SDS011;16902;50.816;12.828;2024-02-04T10:52:58;0.80;;;0.80;;
30080;SDS011;16902;50.816;12.828;2024-02-04T10:58:06;0.70;;;0.70;;
30080;SDS011;16902;50.816;12.828;2024-02-04T11:03:08;0.75;;;0.75;;
30080;SDS011;16902;50.816;12.828;2024-02-04T11:08:12;0.80;;;0.80;;
30080;SDS011;16902;50.816;12.828;2024-02-04T11:13:16;0.90;;;0.90;;
30080;SDS011;16902;50.816;12.828;2024-02-04T11:29:36;1.13;;;1.00;;
30080;SDS011;16902;50.816;12.828;2024-02-04T11:34:38;0.90;;;0.90;;
30080;SDS011;16902;50.816;12.828;2024-02-04T11:39:47;0.80;;;0.80;;
30080;SDS011;16902;50.816;12.828;2024-02-04T11:45:06;0.73;;;0.73;;
30080;SDS011;16902;50.816;12.828;2024-02-04T11:50:09;0.80;;;0.80;;
30080;SDS011;16902;50.816;12.828;2024-02-04T11:55:13;0.90;;;0.90;;
30080;SDS011;16902;50.816;12.828;2024-02-04T12:00:16;0.90;;;0.90;;
30080;SDS011;16902;50.816;12.828;2024-02-04T12:05:19;0.68;;;0.68;;
30080;SDS011;16902;50.816;12.828;2024-02-04T12:10:21;0.80;;;0.80;;
30080;SDS011;16902;50.816;12.828;2024-02-04T12:15:23;0.70;;;0.70;;
30080;SDS011;16902;50.816;12.828;2024-02-04T12:20:26;0.77;;;0.77;;
30080;SDS011;16902;50.816;12.828;2024-02-04T12:25:28;1.63;;;0.93;;
30080;SDS011;16902;50.816;12.828;2024-02-04T12:30:32;0.90;;;0.90;;
30080;SDS011;16902;50.816;12.828;2024-02-04T12:35:35;0.60;;;0.60;;
30080;SDS011;16902;50.816;12.828;2024-02-04T12:40:37;1.40;;;0.77;;
30080;SDS011;16902;50.816;12.828;2024-02-04T12:45:38;0.60;;;0.60;;
30080;SDS011;16902;50.816;12.828;2024-02-04T12:50:40;2.35;;;1.05;;
30080;SDS011;16902;50.816;12.828;2024-02-04T12:55:43;0.60;;;0.60;;
30080;SDS011;16902;50.816;12.828;2024-02-04T13:00:45;1.30;;;1.20;;
30080;SDS011;16902;50.816;12.828;2024-02-04T13:05:47;1.98;;;1.55;;
30080;SDS011;16902;50.816;12.828;2024-02-04T13:10:56;0.82;;;0.82;;
30080;SDS011;16902;50.816;12.828;2024-02-04T13:15:58;2.55;;;2.35;;
30080;SDS011;16902;50.816;12.828;2024-02-04T13:21:00;0.82;;;0.82;;
30080;SDS011;16902;50.816;12.828;2024-02-04T13:26:02;1.73;;;1.63;;
30080;SDS011;16902;50.816;12.828;2024-02-04T13:31:04;7.38;;;2.50;;
30080;SDS011;16902;50.816;12.828;2024-02-04T13:36:09;2.30;;;1.63;;
30080;SDS011;16902;50.816;12.828;2024-02-04T13:41:12;4.47;;;0.95;;
30080;SDS011;16902;50.816;12.828;2024-02-04T13:46:14;1.70;;;1.60;;
30080;SDS011;16902;50.816;12.828;2024-02-04T13:51:16;1.85;;;1.75;;
30080;SDS011;16902;50.816;12.828;2024-02-04T13:56:32;1.65;;;1.27;;
30080;SDS011;16902;50.816;12.828;2024-02-04T14:01:34;1.58;;;1.48;;
30080;SDS011;16902;50.816;12.828;2024-02-04T14:06:36;1.90;;;1.80;;
30080;SDS011;16902;50.816;12.828;2024-02-04T14:11:38;1.73;;;1.55;;
30080;SDS011;16902;50.816;12.828;2024-02-04T14:16:40;1.00;;;1.00;;
30080;SDS011;16902;50.816;12.828;2024-02-04T14:21:42;1.10;;;0.90;;
30080;SDS011;16902;50.816;12.828;2024-02-04T14:26:44;0.68;;;0.68;;
30080;SDS011;16902;50.816;12.828;2024-02-04T14:31:46;1.40;;;1.30;;
30080;SDS011;16902;50.816;12.828;2024-02-04T14:36:48;1.13;;;1.05;;
30080;SDS011;16902;50.816;12.828;2024-02-04T14:41:50;0.95;;;0.95;;
30080;SDS011;16902;50.816;12.828;2024-02-04T14:46:54;1.35;;;1.25;;
30080;SDS011;16902;50.816;12.828;2024-02-04T14:51:56;1.65;;;1.55;;
30080;SDS011;16902;50.816;12.828;2024-02-04T14:56:58;2.70;;;1.90;;
30080;SDS011;16902;50.816;12.828;2024-02-04T15:02:00;2.35;;;2.10;;
30080;SDS011;16902;50.816;12.828;2024-02-04T15:07:02;1.88;;;1.65;;
30080;SDS011;16902;50.816;12.828;2024-02-04T15:12:05;2.80;;;2.58;;
30080;SDS011;16902;50.816;12.828;2024-02-04T15:17:07;1.42;;;1.33;;
30080;SDS011;16902;50.816;12.828;2024-02-04T15:22:09;0.80;;;0.80;;
30080;SDS011;16902;50.816;12.828;2024-02-04T15:27:11;0.90;;;0.88;;
30080;SDS011;16902;50.816;12.828;2024-02-04T15:32:14;2.65;;;1.65;;
30080;SDS011;16902;50.816;12.828;2024-02-04T15:37:19;1.92;;;1.80;;
30080;SDS011;16902;50.816;12.828;2024-02-04T15:42:21;0.70;;;0.70;;
30080;SDS011;16902;50.816;12.828;2024-02-04T15:47:24;6.68;;;1.00;;
30080;SDS011;16902;50.816;12.828;2024-02-04T15:52:28;0.80;;;0.80;;
30080;SDS011;16902;50.816;12.828;2024-02-04T15:57:33;1.42;;;1.33;;
30080;SDS011;16902;50.816;12.828;2024-02-04T16:02:38;1.27;;;1.17;;
30080;SDS011;16902;50.816;12.828;2024-02-04T16:07:43;1.10;;;1.05;;
30080;SDS011;16902;50.816;12.828;2024-02-04T16:12:52;1.27;;;1.17;;
30080;SDS011;16902;50.816;12.828;2024-02-04T16:17:56;0.90;;;0.90;;
30080;SDS011;16902;50.816;12.828;2024-02-04T16:23:01;1.25;;;1.05;;
30080;SDS011;16902;50.816;12.828;2024-02-04T16:28:03;2.42;;;0.95;;
30080;SDS011;16902;50.816;12.828;2024-02-04T16:33:05;0.85;;;0.82;;
30080;SDS011;16902;50.816;12.828;2024-02-04T16:38:07;0.75;;;0.75;;
30080;SDS011;16902;50.816;12.828;2024-02-04T16:43:11;1.45;;;1.00;;
30080;SDS011;16902;50.816;12.828;2024-02-04T16:48:13;1.88;;;1.70;;
30080;SDS011;16902;50.816;12.828;2024-02-04T16:53:15;2.20;;;1.73;;
30080;SDS011;16902;50.816;12.828;2024-02-04T16:58:20;2.35;;;1.70;;
30080;SDS011;16902;50.816;12.828;2024-02-04T17:03:23;1.67;;;1.35;;
30080;SDS011;16902;50.816;12.828;2024-02-04T17:08:25;2.53;;;1.90;;
30080;SDS011;16902;50.816;12.828;2024-02-04T17:13:27;1.60;;;1.50;;
30080;SDS011;16902;50.816;12.828;2024-02-04T17:18:36;1.10;;;1.10;;
30080;SDS011;16902;50.816;12.828;2024-02-04T17:23:48;1.08;;;1.08;;
30080;SDS011;16902;50.816;12.828;2024-02-04T17:28:55;1.52;;;1.48;;
30080;SDS011;16902;50.816;12.828;2024-02-04T17:33:58;1.40;;;1.30;;
30080;SDS011;16902;50.816;12.828;2024-02-04T17:39:01;3.38;;;2.10;;
30080;SDS011;16902;50.816;12.828;2024-02-04T17:44:06;2.75;;;1.55;;
30080;SDS011;16902;50.816;12.828;2024-02-04T17:49:08;2.40;;;1.60;;
30080;SDS011;16902;50.816;12.828;2024-02-04T17:54:11;1.48;;;1.38;;
30080;SDS011;16902;50.816;12.828;2024-02-04T17:59:14;0.73;;;0.73;;
30080;SDS011;16902;50.816;12.828;2024-02-04T18:04:16;1.50;;;1.40;;
30080;SDS011;16902;50.816;12.828;2024-02-04T18:09:18;2.38;;;2.17;;
30080;SDS011;16902;50.816;12.828;2024-02-04T18:14:20;0.98;;;0.98;;
30080;SDS011;16902;50.816;12.828;2024-02-04T18:19:22;1.10;;;1.10;;
30080;SDS011;16902;50.816;12.828;2024-02-04T18:24:26;1.08;;;0.98;;
30080;SDS011;16902;50.816;12.828;2024-02-04T18:29:28;1.40;;;1.30;;
30080;SDS011;16902;50.816;12.828;2024-02-04T18:34:30;0.82;;;0.82;;
30080;SDS011;16902;50.816;12.828;2024-02-04T18:39:32;0.88;;;0.88;;
30080;SDS011;16902;50.816;12.828;2024-02-04T18:44:34;1.85;;;0.77;;
30080;SDS011;16902;50.816;12.828;2024-02-04T18:49:36;0.55;;;0.55;;
30080;SDS011;16902;50.816;12.828;2024-02-04T18:54:39;1.70;;;1.60;;
30080;SDS011;16902;50.816;12.828;2024-02-04T18:59:41;1.45;;;1.35;;
30080;SDS011;16902;50.816;12.828;2024-02-04T19:04:43;2.05;;;1.92;;
30080;SDS011;16902;50.816;12.828;2024-02-04T19:09:45;2.30;;;2.08;;
30080;SDS011;16902;50.816;12.828;2024-02-04T19:14:47;1.73;;;1.63;;
30080;SDS011;16902;50.816;12.828;2024-02-04T19:19:48;1.30;;;1.20;;
30080;SDS011;16902;50.816;12.828;2024-02-04T19:24:51;1.75;;;1.65;;
30080;SDS011;16902;50.816;12.828;2024-02-04T19:29:52;3.17;;;2.50;;
30080;SDS011;16902;50.816;12.828;2024-02-04T19:34:54;1.88;;;1.77;;
30080;SDS011;16902;50.816;12.828;2024-02-04T19:39:56;0.90;;;0.90;;
30080;SDS011;16902;50.816;12.828;2024-02-04T19:44:58;0.70;;;0.70;;
30080;SDS011;16902;50.816;12.828;2024-02-04T19:50:00;0.63;;;0.63;;
30080;SDS011;16902;50.816;12.828;2024-02-04T19:55:04;0.50;;;0.50;;
30080;SDS011;16902;50.816;12.828;2024-02-04T20:00:06;1.38;;;0.75;;
30080;SDS011;16902;50.816;12.828;2024-02-04T20:05:12;0.85;;;0.85;;
30080;SDS011;16902;50.816;12.828;2024-02-04T20:10:14;0.60;;;0.60;;
30080;SDS011;16902;50.816;12.828;2024-02-04T20:15:17;0.50;;;0.50;;
30080;SDS011;16902;50.816;12.828;2024-02-04T20:20:27;0.70;;;0.70;;
30080;SDS011;16902;50.816;12.828;2024-02-04T20:25:30;0.45;;;0.45;;
30080;SDS011;16902;50.816;12.828;2024-02-04T20:30:32;0.60;;;0.60;;
30080;SDS011;16902;50.816;12.828;2024-02-04T20:35:34;1.05;;;1.05;;
30080;SDS011;16902;50.816;12.828;2024-02-04T20:40:36;1.30;;;1.20;;
30080;SDS011;16902;50.816;12.828;2024-02-04T20:45:39;1.25;;;1.25;;
30080;SDS011;16902;50.816;12.828;2024-02-04T20:50:41;0.80;;;0.80;;
30080;SDS011;16902;50.816;12.828;2024-02-04T20:55:43;0.40;;;0.40;;
30080;SDS011;16902;50.816;12.828;2024-02-04T21:00:45;0.60;;;0.60;;
30080;SDS011;16902;50.816;12.828;2024-02-04T21:05:47;0.68;;;0.68;;
30080;SDS011;16902;50.816;12.828;2024-02-04T21:10:49;0.75;;;0.73;;
30080;SDS011;16902;50.816;12.828;2024-02-04T21:15:50;0.60;;;0.60;;
30080;SDS011;16902;50.816;12.828;2024-02-04T21:20:52;0.52;;;0.52;;
30080;SDS011;16902;50.816;12.828;2024-02-04T21:25:54;0.63;;;0.63;;
30080;SDS011;16902;50.816;12.828;2024-02-04T21:30:56;0.60;;;0.60;;
30080;SDS011;16902;50.816;12.828;2024-02-04T21:35:58;0.50;;;0.50;;
30080;SDS011;16902;50.816;12.828;2024-02-04T21:41:00;0.52;;;0.47;;
30080;SDS011;16902;50.816;12.828;2024-02-04T21:46:02;0.52;;;0.52;;
30080;SDS011;16902;50.816;12.828;2024-02-04T21:51:04;0.40;;;0.40;;
30080;SDS011;16902;50.816;12.828;2024-02-04T21:56:06;0.30;;;0.30;;
30080;SDS011;16902;50.816;12.828;2024-02-04T22:01:08;0.68;;;0.68;;
30080;SDS011;16902;50.816;12.828;2024-02-04T22:06:10;0.50;;;0.50;;
30080;SDS011;16902;50.816;12.828;2024-02-04T22:11:12;0.40;;;0.40;;
30080;SDS011;16902;50.816;12.828;2024-02-04T22:16:13;0.55;;;0.55;;
30080;SDS011;16902;50.816;12.828;2024-02-04T22:21:19;0.45;;;0.45;;
30080;SDS011;16902;50.816;12.828;2024-02-04T22:26:21;0.60;;;0.60;;
30080;SDS011;16902;50.816;12.828;2024-02-04T22:31:23;0.75;;;0.75;;
30080;SDS011;16902;50.816;12.828;2024-02-04T22:36:25;0.40;;;0.40;;
30080;SDS011;16902;50.816;12.828;2024-02-04T22:41:29;0.70;;;0.70;;
30080;SDS011;16902;50.816;12.828;2024-02-04T22:46:34;0.50;;;0.50;;
30080;SDS011;16902;50.816;12.828;2024-02-04T22:51:37;0.30;;;0.30;;
30080;SDS011;16902;50.816;12.828;2024-02-04T22:56:40;0.40;;;0.40;;
30080;SDS011;16902;50.816;12.828;2024-02-04T23:01:42;0.40;;;0.40;;
30080;SDS011;16902;50.816;12.828;2024-02-04T23:06:44;0.40;;;0.40;;
30080;SDS011;16902;50.816;12.828;2024-02-04T23:11:47;0.40;;;0.40;;
30080;SDS011;16902;50.816;12.828;2024-02-04T23:16:50;0.40;;;0.40;;
30080;SDS011;16902;50.816;12.828;2024-02-04T23:21:52;0.55;;;0.55;;
30080;SDS011;16902;50.816;12.828;2024-02-04T23:26:54;0.30;;;0.30;;
30080;SDS011;16902;50.816;12.828;2024-02-04T23:31:56;0.50;;;0.50;;
30080;SDS011;16902;50.816;12.828;2024-02-04T23:36:57;0.40;;;0.40;;
30080;SDS011;16902;50.816;12.828;2024-02-04T23:41:59;0.47;;;0.47;;
30080;SDS011;16902;50.816;12.828;2024-02-04T23:47:01;0.50;;;0.50;;
30080;SDS011;16902;50.816;12.828;2024-02-04T23:52:03;0.40;;;0.40;;
30080;SDS011;16902;50.816;12.828;2024-02-04T23:57:06;0.30;;;0.30;;
